sensor_id;sensor_type;location;lat;lon;timestamp;P1;durP1;ratioP1;P2;durP2;ratioP2
76127;SDS011;64873;50.102;14.434;2023-01-25T00:01:49;56.92;;;24.73;;
76127;SDS011;64873;50.102;14.434;2023-01-25T00:04:18;66.32;;;27.33;;
76127;SDS011;64873;50.102;14.434;2023-01-25T00:06:45;59.85;;;24.92;;
76127;SDS011;64873;50.102;14.434;2023-01-25T00:09:11;59.42;;;25.13;;
76127;SDS011;64873;50.102;14.434;2023-01-25T00:11:37;67.18;;;28.00;;
76127;SDS011;64873;50.102;14.434;2023-01-25T00:14:03;65.65;;;26.35;;
76127;SDS011;64873;50.102;14.434;2023-01-25T00:16:29;61.92;;;23.80;;
76127;SDS011;64873;50.102;14.434;2023-01-25T00:18:55;55.75;;;22.17;;
76127;SDS011;64873;50.102;14.434;2023-01-25T00:21:21;68.25;;;28.98;;
76127;SDS011;64873;50.102;14.434;2023-01-25T00:23:47;63.08;;;25.70;;
76127;SDS011;64873;50.102;14.434;2023-01-25T00:26:14;67.22;;;26.15;;
76127;SDS011;64873;50.102;14.434;2023-01-25T00:28:39;69.65;;;28.30;;
76127;SDS011;64873;50.102;14.434;2023-01-25T00:31:05;67.22;;;27.13;;
76127;SDS011;64873;50.102;14.434;2023-01-25T00:33:55;62.15;;;26.38;;
76127;SDS011;64873;50.102;14.434;2023-01-25T00:36:38;62.85;;;25.50;;
76127;SDS011;64873;50.102;14.434;2023-01-25T00:39:05;56.13;;;25.02;;
76127;SDS011;64873;50.102;14.434;2023-01-25T00:41:35;68.43;;;28.38;;
76127;SDS011;64873;50.102;14.434;2023-01-25T00:44:00;60.80;;;26.63;;
76127;SDS011;64873;50.102;14.434;2023-01-25T00:46:26;64.18;;;27.20;;
76127;SDS011;64873;50.102;14.434;2023-01-25T00:48:52;66.25;;;25.38;;
76127;SDS011;64873;50.102;14.434;2023-01-25T00:51:18;58.92;;;23.20;;
76127;SDS011;64873;50.102;14.434;2023-01-25T00:53:44;56.83;;;25.50;;
76127;SDS011;64873;50.102;14.434;2023-01-25T00:56:10;60.90;;;27.67;;
76127;SDS011;64873;50.102;14.434;2023-01-25T00:58:35;69.63;;;28.25;;
76127;SDS011;64873;50.102;14.434;2023-01-25T01:01:00;68.53;;;28.70;;
76127;SDS011;64873;50.102;14.434;2023-01-25T01:03:26;62.40;;;26.60;;
76127;SDS011;64873;50.102;14.434;2023-01-25T01:06:01;65.43;;;27.77;;
76127;SDS011;64873;50.102;14.434;2023-01-25T01:08:27;62.30;;;26.83;;
76127;SDS011;64873;50.102;14.434;2023-01-25T01:11:03;61.70;;;26.02;;
76127;SDS011;64873;50.102;14.434;2023-01-25T01:13:29;65.50;;;27.45;;
76127;SDS011;64873;50.102;14.434;2023-01-25T01:15:55;60.53;;;25.15;;
76127;SDS011;64873;50.102;14.434;2023-01-25T01:18:21;66.28;;;24.27;;
76127;SDS011;64873;50.102;14.434;2023-01-25T01:20:53;64.78;;;27.10;;
76127;SDS011;64873;50.102;14.434;2023-01-25T01:23:19;55.78;;;21.85;;
76127;SDS011;64873;50.102;14.434;2023-01-25T01:25:45;64.60;;;25.83;;
76127;SDS011;64873;50.102;14.434;2023-01-25T01:28:11;55.88;;;25.42;;
76127;SDS011;64873;50.102;14.434;2023-01-25T01:30:37;63.38;;;27.45;;
76127;SDS011;64873;50.102;14.434;2023-01-25T01:33:03;65.75;;;26.27;;
76127;SDS011;64873;50.102;14.434;2023-01-25T01:35:29;64.65;;;27.77;;
76127;SDS011;64873;50.102;14.434;2023-01-25T01:37:56;65.18;;;28.38;;
76127;SDS011;64873;50.102;14.434;2023-01-25T01:40:22;63.15;;;26.85;;
76127;SDS011;64873;50.102;14.434;2023-01-25T01:43:01;61.88;;;25.92;;
76127;SDS011;64873;50.102;14.434;2023-01-25T01:48:19;58.53;;;25.20;;
76127;SDS011;64873;50.102;14.434;2023-01-25T01:50:46;66.05;;;28.33;;
76127;SDS011;64873;50.102;14.434;2023-01-25T01:53:14;66.13;;;27.35;;
76127;SDS011;64873;50.102;14.434;2023-01-25T01:55:40;63.00;;;25.95;;
76127;SDS011;64873;50.102;14.434;2023-01-25T01:58:06;67.40;;;27.80;;
76127;SDS011;64873;50.102;14.434;2023-01-25T02:00:33;68.32;;;26.73;;
76127;SDS011;64873;50.102;14.434;2023-01-25T02:03:02;64.35;;;26.98;;
76127;SDS011;64873;50.102;14.434;2023-01-25T02:08:15;60.20;;;24.33;;
76127;SDS011;64873;50.102;14.434;2023-01-25T02:10:41;56.67;;;23.13;;
76127;SDS011;64873;50.102;14.434;2023-01-25T02:13:08;57.00;;;23.80;;
76127;SDS011;64873;50.102;14.434;2023-01-25T02:15:37;55.30;;;23.85;;
76127;SDS011;64873;50.102;14.434;2023-01-25T02:18:10;57.25;;;22.35;;
76127;SDS011;64873;50.102;14.434;2023-01-25T02:20:37;62.30;;;25.60;;
76127;SDS011;64873;50.102;14.434;2023-01-25T02:25:42;60.45;;;23.92;;
76127;SDS011;64873;50.102;14.434;2023-01-25T02:28:13;70.95;;;27.90;;
76127;SDS011;64873;50.102;14.434;2023-01-25T02:30:42;64.65;;;26.35;;
76127;SDS011;64873;50.102;14.434;2023-01-25T02:33:08;59.05;;;25.17;;
76127;SDS011;64873;50.102;14.434;2023-01-25T02:35:38;64.65;;;26.42;;
76127;SDS011;64873;50.102;14.434;2023-01-25T02:38:14;61.08;;;25.50;;
76127;SDS011;64873;50.102;14.434;2023-01-25T02:40:48;60.10;;;25.00;;
76127;SDS011;64873;50.102;14.434;2023-01-25T02:43:21;67.85;;;28.48;;
76127;SDS011;64873;50.102;14.434;2023-01-25T02:45:50;73.15;;;27.90;;
76127;SDS011;64873;50.102;14.434;2023-01-25T02:48:20;57.80;;;24.07;;
76127;SDS011;64873;50.102;14.434;2023-01-25T02:50:46;59.15;;;25.02;;
76127;SDS011;64873;50.102;14.434;2023-01-25T02:53:11;58.00;;;24.08;;
76127;SDS011;64873;50.102;14.434;2023-01-25T02:55:36;64.80;;;25.00;;
76127;SDS011;64873;50.102;14.434;2023-01-25T02:58:02;58.10;;;25.38;;
76127;SDS011;64873;50.102;14.434;2023-01-25T03:00:27;62.53;;;26.10;;
76127;SDS011;64873;50.102;14.434;2023-01-25T03:02:53;56.92;;;23.05;;
76127;SDS011;64873;50.102;14.434;2023-01-25T03:05:18;54.88;;;23.73;;
76127;SDS011;64873;50.102;14.434;2023-01-25T03:07:43;60.40;;;26.05;;
76127;SDS011;64873;50.102;14.434;2023-01-25T03:10:09;61.70;;;26.13;;
76127;SDS011;64873;50.102;14.434;2023-01-25T03:12:35;64.32;;;26.45;;
76127;SDS011;64873;50.102;14.434;2023-01-25T03:15:00;53.47;;;22.83;;
76127;SDS011;64873;50.102;14.434;2023-01-25T03:17:25;58.25;;;23.17;;
76127;SDS011;64873;50.102;14.434;2023-01-25T03:19:51;51.50;;;21.95;;
76127;SDS011;64873;50.102;14.434;2023-01-25T03:22:18;58.05;;;23.45;;
76127;SDS011;64873;50.102;14.434;2023-01-25T03:24:43;59.63;;;21.75;;
76127;SDS011;64873;50.102;14.434;2023-01-25T03:27:09;49.22;;;20.80;;
76127;SDS011;64873;50.102;14.434;2023-01-25T03:29:34;61.53;;;25.70;;
76127;SDS011;64873;50.102;14.434;2023-01-25T03:32:00;56.85;;;22.42;;
76127;SDS011;64873;50.102;14.434;2023-01-25T03:34:25;59.42;;;25.38;;
76127;SDS011;64873;50.102;14.434;2023-01-25T03:36:51;52.97;;;21.48;;
76127;SDS011;64873;50.102;14.434;2023-01-25T03:39:16;61.35;;;23.50;;
76127;SDS011;64873;50.102;14.434;2023-01-25T03:41:42;57.72;;;24.13;;
76127;SDS011;64873;50.102;14.434;2023-01-25T03:44:07;53.70;;;22.33;;
76127;SDS011;64873;50.102;14.434;2023-01-25T03:46:35;53.30;;;22.35;;
76127;SDS011;64873;50.102;14.434;2023-01-25T03:49:01;55.65;;;23.27;;
76127;SDS011;64873;50.102;14.434;2023-01-25T03:51:27;63.75;;;23.85;;
76127;SDS011;64873;50.102;14.434;2023-01-25T03:53:52;63.38;;;25.75;;
76127;SDS011;64873;50.102;14.434;2023-01-25T03:56:17;58.55;;;24.90;;
76127;SDS011;64873;50.102;14.434;2023-01-25T03:58:44;61.00;;;24.15;;
76127;SDS011;64873;50.102;14.434;2023-01-25T04:01:10;56.67;;;24.73;;
76127;SDS011;64873;50.102;14.434;2023-01-25T04:03:36;60.47;;;24.50;;
76127;SDS011;64873;50.102;14.434;2023-01-25T04:06:02;62.13;;;26.10;;
76127;SDS011;64873;50.102;14.434;2023-01-25T04:08:29;61.80;;;25.70;;
76127;SDS011;64873;50.102;14.434;2023-01-25T04:10:56;54.00;;;22.20;;
76127;SDS011;64873;50.102;14.434;2023-01-25T04:13:24;57.05;;;24.38;;
76127;SDS011;64873;50.102;14.434;2023-01-25T04:15:50;52.58;;;21.92;;
76127;SDS011;64873;50.102;14.434;2023-01-25T04:18:16;57.75;;;22.25;;
76127;SDS011;64873;50.102;14.434;2023-01-25T04:20:43;64.45;;;26.65;;
76127;SDS011;64873;50.102;14.434;2023-01-25T04:23:09;55.85;;;23.40;;
76127;SDS011;64873;50.102;14.434;2023-01-25T04:25:35;54.58;;;23.73;;
76127;SDS011;64873;50.102;14.434;2023-01-25T04:28:01;67.65;;;28.10;;
76127;SDS011;64873;50.102;14.434;2023-01-25T04:30:27;60.40;;;23.33;;
76127;SDS011;64873;50.102;14.434;2023-01-25T04:32:52;56.38;;;23.77;;
76127;SDS011;64873;50.102;14.434;2023-01-25T04:35:18;62.92;;;26.58;;
76127;SDS011;64873;50.102;14.434;2023-01-25T04:37:51;59.78;;;22.88;;
76127;SDS011;64873;50.102;14.434;2023-01-25T04:40:23;62.58;;;25.48;;
76127;SDS011;64873;50.102;14.434;2023-01-25T04:42:49;67.72;;;24.92;;
76127;SDS011;64873;50.102;14.434;2023-01-25T04:45:14;61.80;;;26.60;;
76127;SDS011;64873;50.102;14.434;2023-01-25T04:47:40;59.28;;;24.02;;
76127;SDS011;64873;50.102;14.434;2023-01-25T04:50:06;58.50;;;22.85;;
76127;SDS011;64873;50.102;14.434;2023-01-25T04:52:31;52.15;;;22.80;;
76127;SDS011;64873;50.102;14.434;2023-01-25T04:54:56;61.15;;;22.42;;
76127;SDS011;64873;50.102;14.434;2023-01-25T04:57:22;61.17;;;25.25;;
76127;SDS011;64873;50.102;14.434;2023-01-25T04:59:47;53.70;;;23.05;;
76127;SDS011;64873;50.102;14.434;2023-01-25T05:02:13;52.40;;;22.05;;
76127;SDS011;64873;50.102;14.434;2023-01-25T05:04:38;58.53;;;24.60;;
76127;SDS011;64873;50.102;14.434;2023-01-25T05:07:04;52.38;;;21.90;;
76127;SDS011;64873;50.102;14.434;2023-01-25T05:09:29;54.88;;;23.90;;
76127;SDS011;64873;50.102;14.434;2023-01-25T05:11:54;66.97;;;25.70;;
76127;SDS011;64873;50.102;14.434;2023-01-25T05:14:20;60.17;;;25.48;;
76127;SDS011;64873;50.102;14.434;2023-01-25T05:16:45;61.92;;;26.27;;
76127;SDS011;64873;50.102;14.434;2023-01-25T05:19:11;60.50;;;23.58;;
76127;SDS011;64873;50.102;14.434;2023-01-25T05:21:37;51.83;;;21.60;;
76127;SDS011;64873;50.102;14.434;2023-01-25T05:24:21;60.05;;;25.30;;
76127;SDS011;64873;50.102;14.434;2023-01-25T05:26:46;56.65;;;22.45;;
76127;SDS011;64873;50.102;14.434;2023-01-25T05:29:33;55.45;;;23.48;;
76127;SDS011;64873;50.102;14.434;2023-01-25T05:32:04;57.95;;;23.15;;
76127;SDS011;64873;50.102;14.434;2023-01-25T05:34:31;56.85;;;24.38;;
76127;SDS011;64873;50.102;14.434;2023-01-25T05:36:57;60.38;;;26.30;;
76127;SDS011;64873;50.102;14.434;2023-01-25T05:39:23;54.08;;;21.30;;
76127;SDS011;64873;50.102;14.434;2023-01-25T05:41:48;60.78;;;25.83;;
76127;SDS011;64873;50.102;14.434;2023-01-25T05:44:14;50.40;;;21.10;;
76127;SDS011;64873;50.102;14.434;2023-01-25T05:46:39;51.00;;;22.80;;
76127;SDS011;64873;50.102;14.434;2023-01-25T05:49:05;42.35;;;19.13;;
76127;SDS011;64873;50.102;14.434;2023-01-25T05:51:31;49.97;;;21.00;;
76127;SDS011;64873;50.102;14.434;2023-01-25T05:53:57;50.22;;;21.23;;
76127;SDS011;64873;50.102;14.434;2023-01-25T05:56:23;47.90;;;20.67;;
76127;SDS011;64873;50.102;14.434;2023-01-25T05:58:52;46.58;;;17.77;;
76127;SDS011;64873;50.102;14.434;2023-01-25T06:01:22;46.70;;;19.25;;
76127;SDS011;64873;50.102;14.434;2023-01-25T06:03:49;48.63;;;20.42;;
76127;SDS011;64873;50.102;14.434;2023-01-25T06:06:14;53.22;;;22.27;;
76127;SDS011;64873;50.102;14.434;2023-01-25T06:08:40;48.05;;;20.90;;
76127;SDS011;64873;50.102;14.434;2023-01-25T06:11:09;65.70;;;26.30;;
76127;SDS011;64873;50.102;14.434;2023-01-25T06:13:36;42.03;;;18.88;;
76127;SDS011;64873;50.102;14.434;2023-01-25T06:16:02;44.22;;;19.27;;
76127;SDS011;64873;50.102;14.434;2023-01-25T06:18:28;41.75;;;18.55;;
76127;SDS011;64873;50.102;14.434;2023-01-25T06:20:55;41.15;;;19.10;;
76127;SDS011;64873;50.102;14.434;2023-01-25T06:23:21;40.72;;;17.83;;
76127;SDS011;64873;50.102;14.434;2023-01-25T06:25:47;42.08;;;19.40;;
76127;SDS011;64873;50.102;14.434;2023-01-25T06:28:12;37.75;;;16.50;;
76127;SDS011;64873;50.102;14.434;2023-01-25T06:30:38;40.85;;;18.75;;
76127;SDS011;64873;50.102;14.434;2023-01-25T06:33:03;42.75;;;20.23;;
76127;SDS011;64873;50.102;14.434;2023-01-25T06:35:30;51.47;;;21.30;;
76127;SDS011;64873;50.102;14.434;2023-01-25T06:37:56;50.55;;;20.60;;
76127;SDS011;64873;50.102;14.434;2023-01-25T06:40:23;39.28;;;18.20;;
76127;SDS011;64873;50.102;14.434;2023-01-25T06:42:49;40.05;;;18.42;;
76127;SDS011;64873;50.102;14.434;2023-01-25T06:45:15;42.33;;;19.23;;
76127;SDS011;64873;50.102;14.434;2023-01-25T06:47:40;43.78;;;19.90;;
76127;SDS011;64873;50.102;14.434;2023-01-25T06:50:06;40.42;;;17.92;;
76127;SDS011;64873;50.102;14.434;2023-01-25T06:52:33;39.85;;;19.48;;
76127;SDS011;64873;50.102;14.434;2023-01-25T06:55:02;41.70;;;18.77;;
76127;SDS011;64873;50.102;14.434;2023-01-25T06:57:28;44.58;;;19.85;;
76127;SDS011;64873;50.102;14.434;2023-01-25T06:59:53;36.83;;;16.17;;
76127;SDS011;64873;50.102;14.434;2023-01-25T07:02:19;38.65;;;17.10;;
76127;SDS011;64873;50.102;14.434;2023-01-25T07:04:45;36.70;;;16.38;;
76127;SDS011;64873;50.102;14.434;2023-01-25T07:07:10;37.85;;;17.20;;
76127;SDS011;64873;50.102;14.434;2023-01-25T07:09:36;40.72;;;18.02;;
76127;SDS011;64873;50.102;14.434;2023-01-25T07:12:01;38.10;;;17.38;;
76127;SDS011;64873;50.102;14.434;2023-01-25T07:14:29;36.50;;;17.98;;
76127;SDS011;64873;50.102;14.434;2023-01-25T07:16:55;35.70;;;16.88;;
76127;SDS011;64873;50.102;14.434;2023-01-25T07:19:20;38.67;;;18.42;;
76127;SDS011;64873;50.102;14.434;2023-01-25T07:21:46;38.42;;;18.25;;
76127;SDS011;64873;50.102;14.434;2023-01-25T07:24:12;35.38;;;16.35;;
76127;SDS011;64873;50.102;14.434;2023-01-25T07:26:40;44.15;;;19.67;;
76127;SDS011;64873;50.102;14.434;2023-01-25T07:29:05;40.13;;;18.95;;
76127;SDS011;64873;50.102;14.434;2023-01-25T07:31:31;41.35;;;17.73;;
76127;SDS011;64873;50.102;14.434;2023-01-25T07:33:57;42.25;;;19.95;;
76127;SDS011;64873;50.102;14.434;2023-01-25T07:36:22;34.25;;;17.20;;
76127;SDS011;64873;50.102;14.434;2023-01-25T07:38:51;43.63;;;19.35;;
76127;SDS011;64873;50.102;14.434;2023-01-25T07:41:18;39.58;;;17.95;;
76127;SDS011;64873;50.102;14.434;2023-01-25T07:43:44;39.08;;;18.05;;
76127;SDS011;64873;50.102;14.434;2023-01-25T07:46:10;42.20;;;19.05;;
76127;SDS011;64873;50.102;14.434;2023-01-25T07:48:38;38.10;;;18.08;;
76127;SDS011;64873;50.102;14.434;2023-01-25T07:51:06;39.83;;;19.80;;
76127;SDS011;64873;50.102;14.434;2023-01-25T07:54:05;44.22;;;19.58;;
76127;SDS011;64873;50.102;14.434;2023-01-25T07:56:35;38.50;;;18.30;;
76127;SDS011;64873;50.102;14.434;2023-01-25T07:59:02;42.83;;;19.23;;
76127;SDS011;64873;50.102;14.434;2023-01-25T08:01:28;38.28;;;18.38;;
76127;SDS011;64873;50.102;14.434;2023-01-25T08:03:56;37.63;;;18.00;;
76127;SDS011;64873;50.102;14.434;2023-01-25T08:06:23;35.65;;;17.83;;
76127;SDS011;64873;50.102;14.434;2023-01-25T08:08:51;42.28;;;17.67;;
76127;SDS011;64873;50.102;14.434;2023-01-25T08:11:18;38.72;;;19.15;;
76127;SDS011;64873;50.102;14.434;2023-01-25T08:13:46;38.20;;;18.25;;
76127;SDS011;64873;50.102;14.434;2023-01-25T08:16:14;38.25;;;18.42;;
76127;SDS011;64873;50.102;14.434;2023-01-25T08:18:40;39.67;;;19.10;;
76127;SDS011;64873;50.102;14.434;2023-01-25T08:21:06;34.10;;;17.42;;
76127;SDS011;64873;50.102;14.434;2023-01-25T08:23:32;39.50;;;18.95;;
76127;SDS011;64873;50.102;14.434;2023-01-25T08:26:04;37.17;;;18.33;;
76127;SDS011;64873;50.102;14.434;2023-01-25T08:28:30;39.72;;;18.98;;
76127;SDS011;64873;50.102;14.434;2023-01-25T08:31:09;38.33;;;17.80;;
76127;SDS011;64873;50.102;14.434;2023-01-25T08:33:37;39.58;;;18.40;;
76127;SDS011;64873;50.102;14.434;2023-01-25T08:36:03;37.28;;;19.23;;
76127;SDS011;64873;50.102;14.434;2023-01-25T08:38:30;41.45;;;19.83;;
76127;SDS011;64873;50.102;14.434;2023-01-25T08:41:03;36.88;;;21.27;;
76127;SDS011;64873;50.102;14.434;2023-01-25T08:43:42;31.55;;;16.23;;
76127;SDS011;64873;50.102;14.434;2023-01-25T08:46:09;33.47;;;17.23;;
76127;SDS011;64873;50.102;14.434;2023-01-25T08:48:35;37.97;;;18.83;;
76127;SDS011;64873;50.102;14.434;2023-01-25T08:51:01;40.45;;;21.25;;
76127;SDS011;64873;50.102;14.434;2023-01-25T08:53:27;34.85;;;17.45;;
76127;SDS011;64873;50.102;14.434;2023-01-25T08:55:54;35.13;;;17.48;;
76127;SDS011;64873;50.102;14.434;2023-01-25T08:58:19;37.00;;;18.52;;
76127;SDS011;64873;50.102;14.434;2023-01-25T09:00:46;33.72;;;17.08;;
76127;SDS011;64873;50.102;14.434;2023-01-25T09:03:13;36.20;;;18.55;;
76127;SDS011;64873;50.102;14.434;2023-01-25T09:05:38;44.15;;;20.45;;
76127;SDS011;64873;50.102;14.434;2023-01-25T09:08:07;34.58;;;18.98;;
76127;SDS011;64873;50.102;14.434;2023-01-25T09:10:33;44.90;;;21.35;;
76127;SDS011;64873;50.102;14.434;2023-01-25T09:12:59;44.20;;;20.35;;
76127;SDS011;64873;50.102;14.434;2023-01-25T09:15:24;43.72;;;20.50;;
76127;SDS011;64873;50.102;14.434;2023-01-25T09:17:51;42.17;;;21.33;;
76127;SDS011;64873;50.102;14.434;2023-01-25T09:20:17;47.47;;;21.67;;
76127;SDS011;64873;50.102;14.434;2023-01-25T09:22:42;45.05;;;21.75;;
76127;SDS011;64873;50.102;14.434;2023-01-25T09:25:08;47.55;;;23.33;;
76127;SDS011;64873;50.102;14.434;2023-01-25T09:27:34;43.75;;;22.20;;
76127;SDS011;64873;50.102;14.434;2023-01-25T09:29:59;40.20;;;20.35;;
76127;SDS011;64873;50.102;14.434;2023-01-25T09:32:24;46.30;;;21.75;;
76127;SDS011;64873;50.102;14.434;2023-01-25T09:34:50;43.13;;;20.13;;
76127;SDS011;64873;50.102;14.434;2023-01-25T09:37:15;45.47;;;23.10;;
76127;SDS011;64873;50.102;14.434;2023-01-25T09:39:41;50.92;;;24.40;;
76127;SDS011;64873;50.102;14.434;2023-01-25T09:53:34;46.17;;;21.27;;
76127;SDS011;64873;50.102;14.434;2023-01-25T09:56:12;49.08;;;24.42;;
76127;SDS011;64873;50.102;14.434;2023-01-25T09:58:44;48.60;;;22.67;;
76127;SDS011;64873;50.102;14.434;2023-01-25T10:03:47;43.22;;;19.95;;
76127;SDS011;64873;50.102;14.434;2023-01-25T10:06:17;50.22;;;24.80;;
76127;SDS011;64873;50.102;14.434;2023-01-25T10:08:52;49.95;;;23.00;;
76127;SDS011;64873;50.102;14.434;2023-01-25T10:11:32;47.55;;;23.23;;
76127;SDS011;64873;50.102;14.434;2023-01-25T10:13:58;50.72;;;23.30;;
76127;SDS011;64873;50.102;14.434;2023-01-25T10:19:01;44.35;;;23.20;;
76127;SDS011;64873;50.102;14.434;2023-01-25T10:21:47;49.25;;;23.45;;
76127;SDS011;64873;50.102;14.434;2023-01-25T10:24:27;45.85;;;22.05;;
76127;SDS011;64873;50.102;14.434;2023-01-25T10:27:11;48.17;;;22.35;;
76127;SDS011;64873;50.102;14.434;2023-01-25T10:29:38;53.22;;;22.02;;
76127;SDS011;64873;50.102;14.434;2023-01-25T10:34:45;50.17;;;23.75;;
76127;SDS011;64873;50.102;14.434;2023-01-25T10:37:18;53.17;;;24.52;;
76127;SDS011;64873;50.102;14.434;2023-01-25T10:42:20;52.25;;;25.40;;
76127;SDS011;64873;50.102;14.434;2023-01-25T10:44:50;44.42;;;20.95;;
76127;SDS011;64873;50.102;14.434;2023-01-25T10:47:18;36.10;;;19.05;;
76127;SDS011;64873;50.102;14.434;2023-01-25T10:49:55;40.17;;;18.42;;
76127;SDS011;64873;50.102;14.434;2023-01-25T10:52:23;39.60;;;17.95;;
76127;SDS011;64873;50.102;14.434;2023-01-25T10:55:14;41.47;;;21.63;;
76127;SDS011;64873;50.102;14.434;2023-01-25T10:57:43;45.50;;;21.70;;
76127;SDS011;64873;50.102;14.434;2023-01-25T11:00:19;39.33;;;16.30;;
76127;SDS011;64873;50.102;14.434;2023-01-25T11:02:47;41.28;;;19.73;;
76127;SDS011;64873;50.102;14.434;2023-01-25T11:07:44;40.13;;;20.27;;
76127;SDS011;64873;50.102;14.434;2023-01-25T11:15:43;47.83;;;22.30;;
76127;SDS011;64873;50.102;14.434;2023-01-25T11:18:29;43.55;;;20.83;;
76127;SDS011;64873;50.102;14.434;2023-01-25T11:23:30;42.45;;;20.98;;
76127;SDS011;64873;50.102;14.434;2023-01-25T11:28:40;36.88;;;17.65;;
76127;SDS011;64873;50.102;14.434;2023-01-25T11:31:12;42.22;;;20.27;;
76127;SDS011;64873;50.102;14.434;2023-01-25T11:33:44;39.17;;;18.70;;
76127;SDS011;64873;50.102;14.434;2023-01-25T11:39:02;41.83;;;22.17;;
76127;SDS011;64873;50.102;14.434;2023-01-25T11:41:51;37.40;;;20.02;;
76127;SDS011;64873;50.102;14.434;2023-01-25T11:57:57;36.47;;;19.98;;
76127;SDS011;64873;50.102;14.434;2023-01-25T12:03:08;39.63;;;20.25;;
76127;SDS011;64873;50.102;14.434;2023-01-25T12:05:42;35.95;;;19.10;;
76127;SDS011;64873;50.102;14.434;2023-01-25T12:08:41;36.25;;;19.10;;
76127;SDS011;64873;50.102;14.434;2023-01-25T12:31:54;33.28;;;18.20;;
76127;SDS011;64873;50.102;14.434;2023-01-25T12:34:26;32.78;;;16.85;;
76127;SDS011;64873;50.102;14.434;2023-01-25T12:37:02;29.17;;;15.35;;
76127;SDS011;64873;50.102;14.434;2023-01-25T12:39:56;28.67;;;14.82;;
76127;SDS011;64873;50.102;14.434;2023-01-25T12:42:28;27.75;;;15.02;;
76127;SDS011;64873;50.102;14.434;2023-01-25T12:45:10;29.75;;;15.80;;
76127;SDS011;64873;50.102;14.434;2023-01-25T12:47:54;30.67;;;15.82;;
76127;SDS011;64873;50.102;14.434;2023-01-25T12:50:24;29.45;;;16.35;;
76127;SDS011;64873;50.102;14.434;2023-01-25T12:53:00;27.90;;;13.38;;
76127;SDS011;64873;50.102;14.434;2023-01-25T12:55:27;29.02;;;14.73;;
76127;SDS011;64873;50.102;14.434;2023-01-25T13:00:32;32.70;;;16.05;;
76127;SDS011;64873;50.102;14.434;2023-01-25T13:03:11;25.88;;;14.95;;
76127;SDS011;64873;50.102;14.434;2023-01-25T13:21:56;26.90;;;14.07;;
76127;SDS011;64873;50.102;14.434;2023-01-25T13:24:23;28.33;;;14.75;;
76127;SDS011;64873;50.102;14.434;2023-01-25T13:31:57;28.40;;;14.95;;
76127;SDS011;64873;50.102;14.434;2023-01-25T13:37:20;29.17;;;15.98;;
76127;SDS011;64873;50.102;14.434;2023-01-25T13:45:40;25.80;;;13.80;;
76127;SDS011;64873;50.102;14.434;2023-01-25T13:50:41;26.38;;;13.82;;
76127;SDS011;64873;50.102;14.434;2023-01-25T13:53:22;27.95;;;13.48;;
76127;SDS011;64873;50.102;14.434;2023-01-25T13:55:50;25.13;;;12.75;;
76127;SDS011;64873;50.102;14.434;2023-01-25T14:01:04;28.20;;;14.05;;
76127;SDS011;64873;50.102;14.434;2023-01-25T14:03:44;25.17;;;13.52;;
76127;SDS011;64873;50.102;14.434;2023-01-25T14:06:17;24.55;;;13.90;;
76127;SDS011;64873;50.102;14.434;2023-01-25T14:08:48;28.92;;;14.40;;
76127;SDS011;64873;50.102;14.434;2023-01-25T14:11:22;24.10;;;11.68;;
76127;SDS011;64873;50.102;14.434;2023-01-25T14:14:00;28.23;;;13.20;;
76127;SDS011;64873;50.102;14.434;2023-01-25T14:16:27;26.33;;;12.63;;
76127;SDS011;64873;50.102;14.434;2023-01-25T14:18:54;24.90;;;12.88;;
76127;SDS011;64873;50.102;14.434;2023-01-25T14:21:21;24.23;;;12.38;;
76127;SDS011;64873;50.102;14.434;2023-01-25T14:23:47;28.70;;;13.43;;
76127;SDS011;64873;50.102;14.434;2023-01-25T14:28:53;27.85;;;12.73;;
76127;SDS011;64873;50.102;14.434;2023-01-25T14:31:24;30.55;;;15.82;;
76127;SDS011;64873;50.102;14.434;2023-01-25T14:33:52;25.27;;;13.35;;
76127;SDS011;64873;50.102;14.434;2023-01-25T14:36:22;27.52;;;13.50;;
76127;SDS011;64873;50.102;14.434;2023-01-25T14:38:50;24.00;;;13.23;;
76127;SDS011;64873;50.102;14.434;2023-01-25T14:44:03;28.77;;;13.50;;
76127;SDS011;64873;50.102;14.434;2023-01-25T14:46:35;29.52;;;14.63;;
76127;SDS011;64873;50.102;14.434;2023-01-25T14:54:24;27.55;;;15.02;;
76127;SDS011;64873;50.102;14.434;2023-01-25T14:56:52;29.02;;;14.48;;
76127;SDS011;64873;50.102;14.434;2023-01-25T15:04:51;38.78;;;18.27;;
76127;SDS011;64873;50.102;14.434;2023-01-25T15:18:43;33.30;;;17.58;;
76127;SDS011;64873;50.102;14.434;2023-01-25T15:21:16;34.30;;;16.77;;
76127;SDS011;64873;50.102;14.434;2023-01-25T15:23:54;31.30;;;15.70;;
76127;SDS011;64873;50.102;14.434;2023-01-25T15:26:24;31.88;;;16.88;;
76127;SDS011;64873;50.102;14.434;2023-01-25T15:28:53;35.00;;;16.58;;
76127;SDS011;64873;50.102;14.434;2023-01-25T15:31:38;32.92;;;16.77;;
76127;SDS011;64873;50.102;14.434;2023-01-25T15:34:04;37.53;;;17.50;;
76127;SDS011;64873;50.102;14.434;2023-01-25T15:36:30;36.85;;;18.75;;
76127;SDS011;64873;50.102;14.434;2023-01-25T15:38:57;33.13;;;18.95;;
76127;SDS011;64873;50.102;14.434;2023-01-25T15:41:22;31.17;;;17.10;;
76127;SDS011;64873;50.102;14.434;2023-01-25T15:43:48;38.53;;;17.80;;
76127;SDS011;64873;50.102;14.434;2023-01-25T15:46:35;33.97;;;16.80;;
76127;SDS011;64873;50.102;14.434;2023-01-25T15:49:00;35.63;;;18.55;;
76127;SDS011;64873;50.102;14.434;2023-01-25T15:51:28;31.25;;;16.80;;
76127;SDS011;64873;50.102;14.434;2023-01-25T15:53:56;29.83;;;16.27;;
76127;SDS011;64873;50.102;14.434;2023-01-25T15:56:22;34.72;;;16.42;;
76127;SDS011;64873;50.102;14.434;2023-01-25T15:58:56;31.65;;;15.93;;
76127;SDS011;64873;50.102;14.434;2023-01-25T16:01:28;38.85;;;17.77;;
76127;SDS011;64873;50.102;14.434;2023-01-25T16:03:54;33.35;;;16.65;;
76127;SDS011;64873;50.102;14.434;2023-01-25T16:11:39;39.03;;;20.23;;
76127;SDS011;64873;50.102;14.434;2023-01-25T16:14:05;43.47;;;20.67;;
76127;SDS011;64873;50.102;14.434;2023-01-25T16:16:30;36.78;;;19.23;;
76127;SDS011;64873;50.102;14.434;2023-01-25T16:18:58;39.00;;;18.88;;
76127;SDS011;64873;50.102;14.434;2023-01-25T16:21:26;37.03;;;19.75;;
76127;SDS011;64873;50.102;14.434;2023-01-25T16:23:51;38.42;;;19.95;;
76127;SDS011;64873;50.102;14.434;2023-01-25T16:26:18;37.33;;;18.20;;
76127;SDS011;64873;50.102;14.434;2023-01-25T16:28:48;37.45;;;19.85;;
76127;SDS011;64873;50.102;14.434;2023-01-25T16:31:14;38.90;;;19.67;;
76127;SDS011;64873;50.102;14.434;2023-01-25T16:33:40;37.50;;;19.20;;
76127;SDS011;64873;50.102;14.434;2023-01-25T16:38:42;44.75;;;21.95;;
76127;SDS011;64873;50.102;14.434;2023-01-25T16:41:08;40.13;;;20.27;;
76127;SDS011;64873;50.102;14.434;2023-01-25T16:43:40;44.85;;;21.70;;
76127;SDS011;64873;50.102;14.434;2023-01-25T16:46:17;40.40;;;21.92;;
76127;SDS011;64873;50.102;14.434;2023-01-25T16:48:44;49.97;;;23.70;;
76127;SDS011;64873;50.102;14.434;2023-01-25T16:51:15;47.45;;;23.02;;
76127;SDS011;64873;50.102;14.434;2023-01-25T16:53:45;46.40;;;22.02;;